sensor_id;sensor_type;location;lat;lon;timestamp;P1;durP1;ratioP1;P2;durP2;ratioP2
3523;SDS011;1776;53.330;11.498;2022-12-07T00:02:24;14.23;;;9.20;;
3523;SDS011;1776;53.330;11.498;2022-12-07T00:04:49;13.80;;;7.33;;
3523;SDS011;1776;53.330;11.498;2022-12-07T00:07:14;14.70;;;7.60;;
3523;SDS011;1776;53.330;11.498;2022-12-07T00:09:39;13.87;;;7.60;;
3523;SDS011;1776;53.330;11.498;2022-12-07T00:12:06;11.17;;;7.30;;
3523;SDS011;1776;53.330;11.498;2022-12-07T00:14:32;15.17;;;8.20;;
3523;SDS011;1776;53.330;11.498;2022-12-07T00:16:57;12.17;;;7.53;;
3523;SDS011;1776;53.330;11.498;2022-12-07T00:19:22;13.40;;;8.00;;
3523;SDS011;1776;53.330;11.498;2022-12-07T00:21:48;13.70;;;8.13;;
3523;SDS011;1776;53.330;11.498;2022-12-07T00:24:13;16.10;;;7.80;;
3523;SDS011;1776;53.330;11.498;2022-12-07T00:26:39;19.00;;;8.50;;
3523;SDS011;1776;53.330;11.498;2022-12-07T00:29:07;17.40;;;9.37;;
3523;SDS011;1776;53.330;11.498;2022-12-07T00:31:36;16.00;;;7.93;;
3523;SDS011;1776;53.330;11.498;2022-12-07T00:34:06;15.10;;;8.23;;
3523;SDS011;1776;53.330;11.498;2022-12-07T00:36:32;17.63;;;9.90;;
3523;SDS011;1776;53.330;11.498;2022-12-07T00:38:58;18.17;;;9.30;;
3523;SDS011;1776;53.330;11.498;2022-12-07T00:41:25;20.20;;;10.83;;
3523;SDS011;1776;53.330;11.498;2022-12-07T00:43:51;19.30;;;10.80;;
3523;SDS011;1776;53.330;11.498;2022-12-07T00:46:17;17.40;;;9.50;;
3523;SDS011;1776;53.330;11.498;2022-12-07T00:48:43;18.60;;;10.53;;
3523;SDS011;1776;53.330;11.498;2022-12-07T00:51:13;16.97;;;10.33;;
3523;SDS011;1776;53.330;11.498;2022-12-07T00:53:39;23.20;;;12.00;;
3523;SDS011;1776;53.330;11.498;2022-12-07T00:56:06;23.50;;;11.03;;
3523;SDS011;1776;53.330;11.498;2022-12-07T00:58:36;21.50;;;11.20;;
3523;SDS011;1776;53.330;11.498;2022-12-07T01:01:02;22.10;;;12.53;;
3523;SDS011;1776;53.330;11.498;2022-12-07T01:03:29;27.50;;;13.20;;
3523;SDS011;1776;53.330;11.498;2022-12-07T01:05:54;25.57;;;14.87;;
3523;SDS011;1776;53.330;11.498;2022-12-07T01:08:21;19.47;;;11.40;;
3523;SDS011;1776;53.330;11.498;2022-12-07T01:10:48;26.53;;;13.33;;
3523;SDS011;1776;53.330;11.498;2022-12-07T01:13:14;24.23;;;13.03;;
3523;SDS011;1776;53.330;11.498;2022-12-07T01:15:40;29.93;;;15.10;;
3523;SDS011;1776;53.330;11.498;2022-12-07T01:18:06;26.83;;;15.33;;
3523;SDS011;1776;53.330;11.498;2022-12-07T01:20:32;30.93;;;14.50;;
3523;SDS011;1776;53.330;11.498;2022-12-07T01:22:57;35.70;;;17.70;;
3523;SDS011;1776;53.330;11.498;2022-12-07T01:25:22;31.03;;;14.37;;
3523;SDS011;1776;53.330;11.498;2022-12-07T01:27:47;32.03;;;17.47;;
3523;SDS011;1776;53.330;11.498;2022-12-07T01:30:13;39.20;;;16.20;;
3523;SDS011;1776;53.330;11.498;2022-12-07T01:32:38;31.07;;;15.90;;
3523;SDS011;1776;53.330;11.498;2022-12-07T01:35:04;32.40;;;15.17;;
3523;SDS011;1776;53.330;11.498;2022-12-07T01:37:33;29.10;;;15.00;;
3523;SDS011;1776;53.330;11.498;2022-12-07T01:40:00;27.70;;;14.63;;
3523;SDS011;1776;53.330;11.498;2022-12-07T01:42:25;27.83;;;14.93;;
3523;SDS011;1776;53.330;11.498;2022-12-07T01:47:41;26.97;;;14.83;;
3523;SDS011;1776;53.330;11.498;2022-12-07T01:50:11;30.53;;;14.37;;
3523;SDS011;1776;53.330;11.498;2022-12-07T01:52:36;21.73;;;13.43;;
3523;SDS011;1776;53.330;11.498;2022-12-07T01:55:04;24.50;;;12.50;;
3523;SDS011;1776;53.330;11.498;2022-12-07T01:57:33;26.67;;;14.63;;
3523;SDS011;1776;53.330;11.498;2022-12-07T02:00:03;23.33;;;12.20;;
3523;SDS011;1776;53.330;11.498;2022-12-07T02:02:30;23.60;;;13.20;;
3523;SDS011;1776;53.330;11.498;2022-12-07T02:04:58;26.23;;;13.03;;
3523;SDS011;1776;53.330;11.498;2022-12-07T02:07:25;23.73;;;12.97;;
3523;SDS011;1776;53.330;11.498;2022-12-07T02:09:52;24.50;;;13.97;;
3523;SDS011;1776;53.330;11.498;2022-12-07T02:12:18;22.30;;;12.80;;
3523;SDS011;1776;53.330;11.498;2022-12-07T02:14:44;21.50;;;13.47;;
3523;SDS011;1776;53.330;11.498;2022-12-07T02:17:12;25.67;;;13.60;;
3523;SDS011;1776;53.330;11.498;2022-12-07T02:25:09;28.17;;;12.73;;
3523;SDS011;1776;53.330;11.498;2022-12-07T02:27:56;23.20;;;14.40;;
3523;SDS011;1776;53.330;11.498;2022-12-07T02:30:39;22.93;;;13.20;;
3523;SDS011;1776;53.330;11.498;2022-12-07T02:33:14;23.80;;;12.50;;
3523;SDS011;1776;53.330;11.498;2022-12-07T02:40:46;20.30;;;11.57;;
3523;SDS011;1776;53.330;11.498;2022-12-07T02:43:18;20.80;;;13.00;;
3523;SDS011;1776;53.330;11.498;2022-12-07T02:45:48;17.20;;;11.73;;
3523;SDS011;1776;53.330;11.498;2022-12-07T02:48:16;23.17;;;11.80;;
3523;SDS011;1776;53.330;11.498;2022-12-07T02:50:44;23.93;;;11.13;;
3523;SDS011;1776;53.330;11.498;2022-12-07T02:56:03;16.03;;;10.87;;
3523;SDS011;1776;53.330;11.498;2022-12-07T03:01:28;14.93;;;9.07;;
3523;SDS011;1776;53.330;11.498;2022-12-07T03:04:14;18.80;;;9.10;;
3523;SDS011;1776;53.330;11.498;2022-12-07T03:06:56;16.43;;;8.80;;
3523;SDS011;1776;53.330;11.498;2022-12-07T03:09:30;15.93;;;9.63;;
3523;SDS011;1776;53.330;11.498;2022-12-07T03:12:03;12.80;;;8.23;;
3523;SDS011;1776;53.330;11.498;2022-12-07T03:14:38;15.30;;;9.23;;
3523;SDS011;1776;53.330;11.498;2022-12-07T03:17:13;16.27;;;8.53;;
3523;SDS011;1776;53.330;11.498;2022-12-07T03:19:43;11.90;;;7.97;;
3523;SDS011;1776;53.330;11.498;2022-12-07T03:22:12;15.53;;;9.00;;
3523;SDS011;1776;53.330;11.498;2022-12-07T03:24:40;12.80;;;8.57;;
3523;SDS011;1776;53.330;11.498;2022-12-07T03:27:18;13.77;;;7.60;;
3523;SDS011;1776;53.330;11.498;2022-12-07T03:29:48;16.87;;;9.50;;
3523;SDS011;1776;53.330;11.498;2022-12-07T03:32:20;13.00;;;8.03;;
3523;SDS011;1776;53.330;11.498;2022-12-07T03:34:59;16.80;;;9.80;;
3523;SDS011;1776;53.330;11.498;2022-12-07T03:37:43;17.20;;;9.80;;
3523;SDS011;1776;53.330;11.498;2022-12-07T03:42:44;17.13;;;10.27;;
3523;SDS011;1776;53.330;11.498;2022-12-07T03:45:11;18.90;;;10.13;;
3523;SDS011;1776;53.330;11.498;2022-12-07T03:47:41;13.00;;;8.20;;
3523;SDS011;1776;53.330;11.498;2022-12-07T03:50:14;15.00;;;9.40;;
3523;SDS011;1776;53.330;11.498;2022-12-07T03:52:58;20.73;;;10.57;;
3523;SDS011;1776;53.330;11.498;2022-12-07T03:55:30;12.33;;;7.80;;
3523;SDS011;1776;53.330;11.498;2022-12-07T03:58:01;12.87;;;7.80;;
3523;SDS011;1776;53.330;11.498;2022-12-07T04:00:31;14.20;;;8.30;;
3523;SDS011;1776;53.330;11.498;2022-12-07T04:02:56;13.93;;;8.07;;
3523;SDS011;1776;53.330;11.498;2022-12-07T04:05:22;15.07;;;8.83;;
3523;SDS011;1776;53.330;11.498;2022-12-07T04:07:48;15.57;;;9.50;;
3523;SDS011;1776;53.330;11.498;2022-12-07T04:10:14;14.10;;;8.93;;
3523;SDS011;1776;53.330;11.498;2022-12-07T04:12:39;13.83;;;8.80;;
3523;SDS011;1776;53.330;11.498;2022-12-07T04:15:04;15.80;;;8.50;;
3523;SDS011;1776;53.330;11.498;2022-12-07T04:17:30;15.60;;;9.27;;
3523;SDS011;1776;53.330;11.498;2022-12-07T04:19:56;12.63;;;8.97;;
3523;SDS011;1776;53.330;11.498;2022-12-07T04:22:21;10.47;;;7.47;;
3523;SDS011;1776;53.330;11.498;2022-12-07T04:24:46;17.47;;;9.13;;
3523;SDS011;1776;53.330;11.498;2022-12-07T04:27:11;11.70;;;7.97;;
3523;SDS011;1776;53.330;11.498;2022-12-07T04:29:37;11.13;;;7.97;;
3523;SDS011;1776;53.330;11.498;2022-12-07T04:32:02;9.73;;;7.03;;
3523;SDS011;1776;53.330;11.498;2022-12-07T04:34:27;12.60;;;7.10;;
3523;SDS011;1776;53.330;11.498;2022-12-07T04:36:53;10.30;;;6.53;;
3523;SDS011;1776;53.330;11.498;2022-12-07T04:39:23;9.67;;;7.00;;
3523;SDS011;1776;53.330;11.498;2022-12-07T04:41:51;9.97;;;7.30;;
3523;SDS011;1776;53.330;11.498;2022-12-07T04:44:17;15.90;;;8.57;;
3523;SDS011;1776;53.330;11.498;2022-12-07T04:46:43;13.10;;;8.00;;
3523;SDS011;1776;53.330;11.498;2022-12-07T04:49:08;13.47;;;7.63;;
3523;SDS011;1776;53.330;11.498;2022-12-07T04:51:34;13.97;;;8.33;;
3523;SDS011;1776;53.330;11.498;2022-12-07T04:53:59;10.77;;;8.10;;
3523;SDS011;1776;53.330;11.498;2022-12-07T04:56:25;10.80;;;7.60;;
3523;SDS011;1776;53.330;11.498;2022-12-07T04:58:51;19.13;;;9.10;;
3523;SDS011;1776;53.330;11.498;2022-12-07T05:01:17;12.43;;;8.20;;
3523;SDS011;1776;53.330;11.498;2022-12-07T05:03:43;16.53;;;9.03;;
3523;SDS011;1776;53.330;11.498;2022-12-07T05:06:09;14.63;;;7.80;;
3523;SDS011;1776;53.330;11.498;2022-12-07T05:08:35;12.83;;;7.20;;
3523;SDS011;1776;53.330;11.498;2022-12-07T05:11:01;13.30;;;8.50;;
3523;SDS011;1776;53.330;11.498;2022-12-07T05:13:27;11.13;;;6.90;;
3523;SDS011;1776;53.330;11.498;2022-12-07T05:15:52;11.60;;;8.20;;
3523;SDS011;1776;53.330;11.498;2022-12-07T05:18:18;10.20;;;8.17;;
3523;SDS011;1776;53.330;11.498;2022-12-07T05:20:43;10.23;;;7.70;;
3523;SDS011;1776;53.330;11.498;2022-12-07T05:23:09;9.30;;;7.07;;
3523;SDS011;1776;53.330;11.498;2022-12-07T05:25:34;11.37;;;7.37;;
3523;SDS011;1776;53.330;11.498;2022-12-07T05:28:00;8.80;;;6.80;;
3523;SDS011;1776;53.330;11.498;2022-12-07T05:30:25;12.80;;;7.40;;
3523;SDS011;1776;53.330;11.498;2022-12-07T05:32:51;10.13;;;6.60;;
3523;SDS011;1776;53.330;11.498;2022-12-07T05:35:16;6.87;;;5.00;;
3523;SDS011;1776;53.330;11.498;2022-12-07T05:37:42;10.13;;;6.30;;
3523;SDS011;1776;53.330;11.498;2022-12-07T05:40:08;8.67;;;5.93;;
3523;SDS011;1776;53.330;11.498;2022-12-07T05:42:34;7.27;;;4.93;;
3523;SDS011;1776;53.330;11.498;2022-12-07T05:44:59;12.40;;;6.30;;
3523;SDS011;1776;53.330;11.498;2022-12-07T05:47:24;8.87;;;6.83;;
3523;SDS011;1776;53.330;11.498;2022-12-07T05:49:49;9.00;;;6.10;;
3523;SDS011;1776;53.330;11.498;2022-12-07T05:52:15;9.53;;;6.10;;
3523;SDS011;1776;53.330;11.498;2022-12-07T05:54:40;13.30;;;8.40;;
3523;SDS011;1776;53.330;11.498;2022-12-07T05:57:06;9.40;;;5.80;;
3523;SDS011;1776;53.330;11.498;2022-12-07T05:59:31;10.80;;;5.70;;
3523;SDS011;1776;53.330;11.498;2022-12-07T06:02:01;8.63;;;6.20;;
3523;SDS011;1776;53.330;11.498;2022-12-07T06:04:30;9.93;;;6.53;;
3523;SDS011;1776;53.330;11.498;2022-12-07T06:06:57;11.90;;;6.70;;
3523;SDS011;1776;53.330;11.498;2022-12-07T06:09:23;16.50;;;6.80;;
3523;SDS011;1776;53.330;11.498;2022-12-07T06:11:50;12.83;;;6.90;;
3523;SDS011;1776;53.330;11.498;2022-12-07T06:14:34;13.63;;;6.30;;
3523;SDS011;1776;53.330;11.498;2022-12-07T06:16:59;9.23;;;6.40;;
3523;SDS011;1776;53.330;11.498;2022-12-07T06:19:25;10.03;;;6.60;;
3523;SDS011;1776;53.330;11.498;2022-12-07T06:21:50;11.30;;;6.77;;
3523;SDS011;1776;53.330;11.498;2022-12-07T06:24:16;12.83;;;6.70;;
3523;SDS011;1776;53.330;11.498;2022-12-07T06:26:42;15.13;;;6.63;;
3523;SDS011;1776;53.330;11.498;2022-12-07T06:29:08;11.60;;;6.50;;
3523;SDS011;1776;53.330;11.498;2022-12-07T06:31:33;9.43;;;6.33;;
3523;SDS011;1776;53.330;11.498;2022-12-07T06:34:00;9.83;;;6.30;;
3523;SDS011;1776;53.330;11.498;2022-12-07T06:36:26;6.53;;;5.20;;
3523;SDS011;1776;53.330;11.498;2022-12-07T06:38:52;9.37;;;5.00;;
3523;SDS011;1776;53.330;11.498;2022-12-07T06:41:17;9.30;;;5.87;;
3523;SDS011;1776;53.330;11.498;2022-12-07T06:43:42;8.67;;;5.67;;
3523;SDS011;1776;53.330;11.498;2022-12-07T06:46:08;9.37;;;5.70;;
3523;SDS011;1776;53.330;11.498;2022-12-07T06:48:33;8.60;;;5.60;;
3523;SDS011;1776;53.330;11.498;2022-12-07T06:50:58;7.87;;;4.90;;
3523;SDS011;1776;53.330;11.498;2022-12-07T06:53:24;8.20;;;5.33;;
3523;SDS011;1776;53.330;11.498;2022-12-07T06:55:49;10.53;;;6.00;;
3523;SDS011;1776;53.330;11.498;2022-12-07T06:58:15;7.87;;;5.20;;
3523;SDS011;1776;53.330;11.498;2022-12-07T07:00:40;10.40;;;5.70;;
3523;SDS011;1776;53.330;11.498;2022-12-07T07:03:06;5.83;;;4.90;;
3523;SDS011;1776;53.330;11.498;2022-12-07T07:05:31;9.00;;;5.47;;
3523;SDS011;1776;53.330;11.498;2022-12-07T07:07:56;6.30;;;4.63;;
3523;SDS011;1776;53.330;11.498;2022-12-07T07:10:21;6.30;;;5.50;;
3523;SDS011;1776;53.330;11.498;2022-12-07T07:12:47;6.43;;;4.67;;
3523;SDS011;1776;53.330;11.498;2022-12-07T07:15:12;6.63;;;4.73;;
3523;SDS011;1776;53.330;11.498;2022-12-07T07:17:37;19.90;;;13.33;;
3523;SDS011;1776;53.330;11.498;2022-12-07T07:20:03;7.97;;;4.77;;
3523;SDS011;1776;53.330;11.498;2022-12-07T07:22:29;6.27;;;4.40;;
3523;SDS011;1776;53.330;11.498;2022-12-07T07:24:54;6.00;;;4.50;;
3523;SDS011;1776;53.330;11.498;2022-12-07T07:27:19;6.93;;;5.30;;
3523;SDS011;1776;53.330;11.498;2022-12-07T07:29:45;8.33;;;5.80;;
3523;SDS011;1776;53.330;11.498;2022-12-07T07:32:10;9.43;;;5.50;;
3523;SDS011;1776;53.330;11.498;2022-12-07T07:34:35;11.67;;;5.67;;
3523;SDS011;1776;53.330;11.498;2022-12-07T07:37:00;8.57;;;5.60;;
3523;SDS011;1776;53.330;11.498;2022-12-07T07:39:26;11.73;;;7.23;;
3523;SDS011;1776;53.330;11.498;2022-12-07T07:41:51;7.67;;;5.70;;
3523;SDS011;1776;53.330;11.498;2022-12-07T07:44:16;6.50;;;5.00;;
3523;SDS011;1776;53.330;11.498;2022-12-07T07:46:41;14.23;;;5.83;;
3523;SDS011;1776;53.330;11.498;2022-12-07T07:49:07;7.17;;;5.27;;
3523;SDS011;1776;53.330;11.498;2022-12-07T07:51:35;9.57;;;5.93;;
3523;SDS011;1776;53.330;11.498;2022-12-07T07:54:00;8.70;;;5.80;;
3523;SDS011;1776;53.330;11.498;2022-12-07T07:56:25;10.07;;;6.30;;
3523;SDS011;1776;53.330;11.498;2022-12-07T07:58:53;10.70;;;5.83;;
3523;SDS011;1776;53.330;11.498;2022-12-07T08:01:20;10.10;;;6.97;;
3523;SDS011;1776;53.330;11.498;2022-12-07T08:03:46;5.90;;;4.70;;
3523;SDS011;1776;53.330;11.498;2022-12-07T08:06:11;8.30;;;5.10;;
3523;SDS011;1776;53.330;11.498;2022-12-07T08:08:37;8.00;;;4.97;;
3523;SDS011;1776;53.330;11.498;2022-12-07T08:11:05;8.50;;;6.23;;
3523;SDS011;1776;53.330;11.498;2022-12-07T08:13:31;6.17;;;4.60;;
3523;SDS011;1776;53.330;11.498;2022-12-07T08:15:57;7.27;;;4.17;;
3523;SDS011;1776;53.330;11.498;2022-12-07T08:18:23;9.60;;;4.83;;
3523;SDS011;1776;53.330;11.498;2022-12-07T08:20:48;6.13;;;4.60;;
3523;SDS011;1776;53.330;11.498;2022-12-07T08:23:13;5.00;;;3.87;;
3523;SDS011;1776;53.330;11.498;2022-12-07T08:25:39;7.20;;;4.83;;
3523;SDS011;1776;53.330;11.498;2022-12-07T08:28:04;6.70;;;4.63;;
3523;SDS011;1776;53.330;11.498;2022-12-07T08:30:30;8.70;;;4.60;;
3523;SDS011;1776;53.330;11.498;2022-12-07T08:32:56;7.60;;;4.60;;
3523;SDS011;1776;53.330;11.498;2022-12-07T08:35:22;8.23;;;4.77;;
3523;SDS011;1776;53.330;11.498;2022-12-07T08:37:47;7.37;;;4.97;;
3523;SDS011;1776;53.330;11.498;2022-12-07T08:40:13;9.33;;;6.47;;
3523;SDS011;1776;53.330;11.498;2022-12-07T08:42:43;7.57;;;5.90;;
3523;SDS011;1776;53.330;11.498;2022-12-07T08:45:14;7.83;;;5.63;;
3523;SDS011;1776;53.330;11.498;2022-12-07T08:47:47;8.63;;;6.00;;
3523;SDS011;1776;53.330;11.498;2022-12-07T08:50:21;6.57;;;5.03;;
3523;SDS011;1776;53.330;11.498;2022-12-07T08:52:48;9.70;;;6.00;;
3523;SDS011;1776;53.330;11.498;2022-12-07T08:55:17;9.47;;;6.33;;
3523;SDS011;1776;53.330;11.498;2022-12-07T08:57:42;13.33;;;5.80;;
3523;SDS011;1776;53.330;11.498;2022-12-07T09:00:08;8.73;;;6.40;;
3523;SDS011;1776;53.330;11.498;2022-12-07T09:02:34;7.20;;;5.33;;
3523;SDS011;1776;53.330;11.498;2022-12-07T09:04:59;11.67;;;6.03;;
3523;SDS011;1776;53.330;11.498;2022-12-07T09:07:25;8.83;;;5.57;;
3523;SDS011;1776;53.330;11.498;2022-12-07T09:09:51;7.63;;;5.20;;
3523;SDS011;1776;53.330;11.498;2022-12-07T09:12:16;9.53;;;5.07;;
3523;SDS011;1776;53.330;11.498;2022-12-07T09:14:41;6.37;;;4.27;;
3523;SDS011;1776;53.330;11.498;2022-12-07T09:17:07;9.13;;;5.60;;
3523;SDS011;1776;53.330;11.498;2022-12-07T09:19:34;9.63;;;6.00;;
3523;SDS011;1776;53.330;11.498;2022-12-07T09:21:59;6.20;;;4.60;;
3523;SDS011;1776;53.330;11.498;2022-12-07T09:24:24;6.70;;;5.23;;
3523;SDS011;1776;53.330;11.498;2022-12-07T09:26:49;5.80;;;4.23;;
3523;SDS011;1776;53.330;11.498;2022-12-07T09:29:15;8.90;;;4.30;;
3523;SDS011;1776;53.330;11.498;2022-12-07T09:31:40;5.83;;;3.40;;
3523;SDS011;1776;53.330;11.498;2022-12-07T09:34:05;6.37;;;3.30;;
3523;SDS011;1776;53.330;11.498;2022-12-07T09:36:32;5.17;;;3.60;;
3523;SDS011;1776;53.330;11.498;2022-12-07T09:38:57;7.57;;;4.50;;
3523;SDS011;1776;53.330;11.498;2022-12-07T09:41:23;6.30;;;4.67;;
3523;SDS011;1776;53.330;11.498;2022-12-07T09:43:50;7.23;;;3.57;;
3523;SDS011;1776;53.330;11.498;2022-12-07T09:46:17;5.10;;;3.00;;
3523;SDS011;1776;53.330;11.498;2022-12-07T09:48:45;7.20;;;3.43;;
3523;SDS011;1776;53.330;11.498;2022-12-07T09:51:22;5.60;;;2.97;;
3523;SDS011;1776;53.330;11.498;2022-12-07T09:53:48;6.40;;;4.27;;
3523;SDS011;1776;53.330;11.498;2022-12-07T09:56:15;5.50;;;2.57;;
3523;SDS011;1776;53.330;11.498;2022-12-07T09:58:42;9.27;;;3.80;;
3523;SDS011;1776;53.330;11.498;2022-12-07T10:03:34;4.27;;;3.63;;
3523;SDS011;1776;53.330;11.498;2022-12-07T10:06:03;4.50;;;2.97;;
3523;SDS011;1776;53.330;11.498;2022-12-07T10:08:30;5.33;;;4.63;;
3523;SDS011;1776;53.330;11.498;2022-12-07T10:10:55;5.67;;;3.67;;
3523;SDS011;1776;53.330;11.498;2022-12-07T10:13:33;4.40;;;2.80;;
3523;SDS011;1776;53.330;11.498;2022-12-07T10:16:43;5.77;;;2.30;;
3523;SDS011;1776;53.330;11.498;2022-12-07T10:19:19;6.40;;;2.30;;
3523;SDS011;1776;53.330;11.498;2022-12-07T10:24:36;5.87;;;3.20;;
3523;SDS011;1776;53.330;11.498;2022-12-07T10:27:10;6.63;;;3.23;;
3523;SDS011;1776;53.330;11.498;2022-12-07T10:29:42;6.93;;;2.07;;
3523;SDS011;1776;53.330;11.498;2022-12-07T10:34:41;7.53;;;2.10;;
3523;SDS011;1776;53.330;11.498;2022-12-07T10:37:13;5.00;;;1.73;;
3523;SDS011;1776;53.330;11.498;2022-12-07T10:42:08;4.07;;;2.53;;
3523;SDS011;1776;53.330;11.498;2022-12-07T10:44:41;4.40;;;1.90;;
3523;SDS011;1776;53.330;11.498;2022-12-07T10:52:35;9.57;;;2.50;;
3523;SDS011;1776;53.330;11.498;2022-12-07T10:55:08;4.47;;;1.97;;
3523;SDS011;1776;53.330;11.498;2022-12-07T10:57:49;9.57;;;2.93;;
3523;SDS011;1776;53.330;11.498;2022-12-07T11:00:25;7.40;;;2.27;;
3523;SDS011;1776;53.330;11.498;2022-12-07T11:03:06;5.27;;;2.57;;
3523;SDS011;1776;53.330;11.498;2022-12-07T11:06:03;4.23;;;2.50;;
3523;SDS011;1776;53.330;11.498;2022-12-07T11:09:02;7.00;;;3.50;;
3523;SDS011;1776;53.330;11.498;2022-12-07T11:11:50;9.23;;;1.97;;
3523;SDS011;1776;53.330;11.498;2022-12-07T11:14:26;7.90;;;3.00;;
3523;SDS011;1776;53.330;11.498;2022-12-07T11:22:56;3.60;;;1.50;;
3523;SDS011;1776;53.330;11.498;2022-12-07T11:25:31;9.80;;;2.93;;
3523;SDS011;1776;53.330;11.498;2022-12-07T11:28:39;3.90;;;1.80;;
3523;SDS011;1776;53.330;11.498;2022-12-07T11:33:56;5.40;;;2.10;;
3523;SDS011;1776;53.330;11.498;2022-12-07T11:36:39;4.23;;;2.00;;
3523;SDS011;1776;53.330;11.498;2022-12-07T11:42:04;7.43;;;1.73;;
3523;SDS011;1776;53.330;11.498;2022-12-07T11:47:43;4.47;;;1.80;;
3523;SDS011;1776;53.330;11.498;2022-12-07T11:55:50;7.47;;;2.10;;
3523;SDS011;1776;53.330;11.498;2022-12-07T12:00:46;3.40;;;1.70;;
3523;SDS011;1776;53.330;11.498;2022-12-07T12:03:15;9.90;;;1.77;;
3523;SDS011;1776;53.330;11.498;2022-12-07T12:05:52;2.97;;;1.73;;
3523;SDS011;1776;53.330;11.498;2022-12-07T12:08:24;11.07;;;1.97;;
3523;SDS011;1776;53.330;11.498;2022-12-07T12:11:00;5.63;;;2.43;;
3523;SDS011;1776;53.330;11.498;2022-12-07T12:19:38;7.50;;;2.10;;
3523;SDS011;1776;53.330;11.498;2022-12-07T12:22:12;4.53;;;1.83;;
3523;SDS011;1776;53.330;11.498;2022-12-07T12:24:44;6.63;;;2.47;;
3523;SDS011;1776;53.330;11.498;2022-12-07T12:27:23;3.67;;;2.10;;
3523;SDS011;1776;53.330;11.498;2022-12-07T12:29:55;2.50;;;1.57;;
3523;SDS011;1776;53.330;11.498;2022-12-07T12:32:28;4.07;;;2.03;;
3523;SDS011;1776;53.330;11.498;2022-12-07T12:35:48;5.00;;;2.63;;
3523;SDS011;1776;53.330;11.498;2022-12-07T12:37:54;6.20;;;1.93;;
3523;SDS011;1776;53.330;11.498;2022-12-07T12:42:46;9.20;;;2.30;;
3523;SDS011;1776;53.330;11.498;2022-12-07T12:45:25;2.83;;;1.67;;
3523;SDS011;1776;53.330;11.498;2022-12-07T12:47:54;9.23;;;2.63;;
3523;SDS011;1776;53.330;11.498;2022-12-07T12:53:02;7.00;;;1.73;;
3523;SDS011;1776;53.330;11.498;2022-12-07T13:00:44;3.50;;;1.53;;
3523;SDS011;1776;53.330;11.498;2022-12-07T13:03:24;8.10;;;2.90;;
3523;SDS011;1776;53.330;11.498;2022-12-07T13:08:50;7.90;;;2.50;;
3523;SDS011;1776;53.330;11.498;2022-12-07T13:11:39;7.00;;;1.60;;
3523;SDS011;1776;53.330;11.498;2022-12-07T13:17:09;4.70;;;2.10;;
3523;SDS011;1776;53.330;11.498;2022-12-07T13:24:57;10.90;;;2.77;;
3523;SDS011;1776;53.330;11.498;2022-12-07T13:27:28;5.60;;;2.53;;
3523;SDS011;1776;53.330;11.498;2022-12-07T13:29:56;10.80;;;2.60;;
3523;SDS011;1776;53.330;11.498;2022-12-07T13:32:26;4.10;;;2.10;;
3523;SDS011;1776;53.330;11.498;2022-12-07T13:34:53;8.30;;;2.10;;
3523;SDS011;1776;53.330;11.498;2022-12-07T13:37:26;7.37;;;2.13;;
3523;SDS011;1776;53.330;11.498;2022-12-07T13:39:54;5.83;;;1.90;;
3523;SDS011;1776;53.330;11.498;2022-12-07T13:44:51;6.53;;;2.00;;
3523;SDS011;1776;53.330;11.498;2022-12-07T13:47:20;4.27;;;1.80;;
3523;SDS011;1776;53.330;11.498;2022-12-07T13:49:56;4.70;;;1.77;;
3523;SDS011;1776;53.330;11.498;2022-12-07T13:52:23;14.00;;;1.73;;
3523;SDS011;1776;53.330;11.498;2022-12-07T13:55:00;5.73;;;1.40;;
3523;SDS011;1776;53.330;11.498;2022-12-07T13:57:38;5.33;;;1.70;;
3523;SDS011;1776;53.330;11.498;2022-12-07T14:00:04;3.20;;;1.00;;
3523;SDS011;1776;53.330;11.498;2022-12-07T14:02:53;3.10;;;1.20;;
3523;SDS011;1776;53.330;11.498;2022-12-07T14:05:26;6.53;;;1.40;;
3523;SDS011;1776;53.330;11.498;2022-12-07T14:08:00;8.93;;;1.83;;
3523;SDS011;1776;53.330;11.498;2022-12-07T14:10:29;3.70;;;1.10;;
3523;SDS011;1776;53.330;11.498;2022-12-07T14:12:59;6.10;;;2.07;;
3523;SDS011;1776;53.330;11.498;2022-12-07T14:15:32;2.73;;;1.33;;
3523;SDS011;1776;53.330;11.498;2022-12-07T14:18:00;3.80;;;0.80;;
3523;SDS011;1776;53.330;11.498;2022-12-07T14:22:57;3.60;;;0.90;;
3523;SDS011;1776;53.330;11.498;2022-12-07T14:25:26;5.50;;;1.67;;
3523;SDS011;1776;53.330;11.498;2022-12-07T14:27:56;5.10;;;1.00;;
3523;SDS011;1776;53.330;11.498;2022-12-07T14:30:24;2.87;;;0.90;;
3523;SDS011;1776;53.330;11.498;2022-12-07T14:32:55;1.63;;;0.90;;
3523;SDS011;1776;53.330;11.498;2022-12-07T14:35:23;1.60;;;1.10;;
3523;SDS011;1776;53.330;11.498;2022-12-07T14:37:49;1.80;;;1.20;;
3523;SDS011;1776;53.330;11.498;2022-12-07T14:40:16;2.97;;;1.10;;
3523;SDS011;1776;53.330;11.498;2022-12-07T14:45:43;3.67;;;1.13;;
3523;SDS011;1776;53.330;11.498;2022-12-07T14:48:12;1.93;;;0.93;;
3523;SDS011;1776;53.330;11.498;2022-12-07T14:50:40;1.80;;;0.93;;
3523;SDS011;1776;53.330;11.498;2022-12-07T14:53:16;2.40;;;0.93;;
3523;SDS011;1776;53.330;11.498;2022-12-07T14:55:43;3.60;;;1.00;;
3523;SDS011;1776;53.330;11.498;2022-12-07T14:58:12;3.63;;;1.07;;
3523;SDS011;1776;53.330;11.498;2022-12-07T15:00:39;4.77;;;1.13;;
3523;SDS011;1776;53.330;11.498;2022-12-07T15:03:04;6.23;;;2.03;;
3523;SDS011;1776;53.330;11.498;2022-12-07T15:05:30;5.10;;;2.53;;
3523;SDS011;1776;53.330;11.498;2022-12-07T15:07:55;3.43;;;1.27;;
3523;SDS011;1776;53.330;11.498;2022-12-07T15:10:21;2.57;;;1.30;;
3523;SDS011;1776;53.330;11.498;2022-12-07T15:12:55;3.23;;;1.03;;
3523;SDS011;1776;53.330;11.498;2022-12-07T15:15:41;4.20;;;1.07;;
3523;SDS011;1776;53.330;11.498;2022-12-07T15:18:06;10.13;;;2.97;;
3523;SDS011;1776;53.330;11.498;2022-12-07T15:20:31;4.73;;;1.07;;
3523;SDS011;1776;53.330;11.498;2022-12-07T15:22:56;4.27;;;1.07;;
3523;SDS011;1776;53.330;11.498;2022-12-07T15:25:22;6.30;;;1.20;;
3523;SDS011;1776;53.330;11.498;2022-12-07T15:27:47;6.83;;;1.00;;
3523;SDS011;1776;53.330;11.498;2022-12-07T15:30:12;2.50;;;1.17;;
3523;SDS011;1776;53.330;11.498;2022-12-07T15:32:38;3.10;;;1.03;;
3523;SDS011;1776;53.330;11.498;2022-12-07T15:35:03;2.30;;;1.37;;
3523;SDS011;1776;53.330;11.498;2022-12-07T15:37:28;3.67;;;1.87;;
3523;SDS011;1776;53.330;11.498;2022-12-07T15:39:54;10.27;;;1.63;;
3523;SDS011;1776;53.330;11.498;2022-12-07T15:42:19;20.97;;;8.70;;
3523;SDS011;1776;53.330;11.498;2022-12-07T15:44:44;3.13;;;1.43;;
3523;SDS011;1776;53.330;11.498;2022-12-07T15:47:28;3.13;;;1.10;;
3523;SDS011;1776;53.330;11.498;2022-12-07T15:49:53;5.47;;;1.60;;
3523;SDS011;1776;53.330;11.498;2022-12-07T15:52:18;7.20;;;3.60;;
3523;SDS011;1776;53.330;11.498;2022-12-07T15:54:44;3.73;;;0.90;;
3523;SDS011;1776;53.330;11.498;2022-12-07T15:57:09;1.90;;;1.00;;
3523;SDS011;1776;53.330;11.498;2022-12-07T15:59:34;3.47;;;2.90;;
3523;SDS011;1776;53.330;11.498;2022-12-07T16:02:00;1.57;;;1.37;;
3523;SDS011;1776;53.330;11.498;2022-12-07T16:04:26;2.53;;;1.23;;
3523;SDS011;1776;53.330;11.498;2022-12-07T16:06:53;6.33;;;2.17;;
3523;SDS011;1776;53.330;11.498;2022-12-07T16:09:18;5.23;;;2.80;;
3523;SDS011;1776;53.330;11.498;2022-12-07T16:11:43;5.80;;;4.83;;
3523;SDS011;1776;53.330;11.498;2022-12-07T16:14:09;5.07;;;3.70;;
3523;SDS011;1776;53.330;11.498;2022-12-07T16:16:34;4.37;;;3.43;;
3523;SDS011;1776;53.330;11.498;2022-12-07T16:18:59;3.33;;;1.97;;
3523;SDS011;1776;53.330;11.498;2022-12-07T16:21:24;3.13;;;1.53;;
3523;SDS011;1776;53.330;11.498;2022-12-07T16:23:50;2.40;;;1.30;;
3523;SDS011;1776;53.330;11.498;2022-12-07T16:26:20;2.77;;;1.63;;
3523;SDS011;1776;53.330;11.498;2022-12-07T16:28:49;2.03;;;0.90;;
3523;SDS011;1776;53.330;11.498;2022-12-07T16:31:16;2.93;;;1.17;;
3523;SDS011;1776;53.330;11.498;2022-12-07T16:33:43;2.83;;;1.17;;
3523;SDS011;1776;53.330;11.498;2022-12-07T16:36:10;2.73;;;1.10;;
3523;SDS011;1776;53.330;11.498;2022-12-07T16:38:37;4.53;;;1.87;;